Maersk_kyrenia — VRGM8 — position and weather

sailwx.info

Track history (hours):
 
Tides and Currents Weather Stations Pressure Air Temp Water Temp Dewpoint Dewpoint Depression Visibility Wind Speed Wind Dir Waves Ship Positions

Maersk_kyrenia

Last reported at 2015-Jun-22 09:00 UTC. Time now 2015-Jun-29 23:12 UTC.
Position N 32°18' E 029°54'.

Length 300 m; draft 14 m.

MMSI: 477733600.

Wind from 280 at 12 knots

Waves 1.0 meters (3 feet), 4 second period

Barometer 1013.3 mb
Air temperature 26.5 ° C
Visibility: greater than 10.8 NM
Dewpoint 17.9 ° C
Water temperature 24.5 ° C

Date/timePositionNaut miles runAvg speedWind from/ knotsBaromVisibWave heightAir tempDewpointWater temp
2015-Jun-22 09:00N 32°18' E 029°54'78519.4 280 / 121013.310.8 1.026.517.924.5
2015-Jun-20 16:28N 36°17' E 014°49'1819.6
2015-Jun-20 15:33N 36°22' E 014°27'1919.4
2015-Jun-20 14:33N 36°28' E 014°04'2019.4
2015-Jun-20 13:32N 36°34' E 013°41'46319.2
2015-Jun-19 13:28N 37°15' E 004°05'1428.3
2015-Jun-19 13:00N 37°12' E 003°48'512.3 080 / 101017.1 5.4 0.524.517.323.2
2015-Jun-19 12:33N 37°15' E 003°42'4619.5
2015-Jun-19 10:13N 37°13' E 002°45'1319.4
2015-Jun-19 09:32N 37°10' E 002°29'2319.3
2015-Jun-19 08:21N 37°03' E 002°02'1619.2
2015-Jun-19 07:32N 37°02' E 001°42'1919.2
2015-Jun-19 06:33N 36°59' E 001°19'1919.2
2015-Jun-19 05:33N 36°55' E 000°55'1919.2
2015-Jun-19 04:33N 36°51' E 000°32'1919.3
2015-Jun-19 03:33N 36°47' E 000°08'1919.2
2015-Jun-19 02:33N 36°42' W 000°15'1919.0
2015-Jun-19 01:33N 36°38' W 000°39'3 6.2
2015-Jun-19 01:00N 36°36' W 000°42'1831.7 030 / 141017.6 5.4 0.521.017.823.0
2015-Jun-19 00:25N 36°34' W 001°04'5519.1
2015-Jun-18 21:33N 36°22' W 002°11'1919.3
2015-Jun-18 20:34N 36°18' W 002°34'12819.9
2015-Jun-18 14:08N 35°60' W 005°11'1120.2
2015-Jun-18 13:34N 35°58' W 005°25'13317.9
2015-Jun-18 06:07N 36°18' W 008°08'1119.1
2015-Jun-18 05:33N 36°21' W 008°21'1919.2
2015-Jun-18 04:34N 36°26' W 008°44'1918.9
2015-Jun-18 03:33N 36°29' W 009°07'1918.4
2015-Jun-18 02:33N 36°40' W 009°26'1818.5
2015-Jun-18 01:33N 36°56' W 009°36'1919.1
2015-Jun-18 00:33N 37°15' W 009°42'3 5.9
2015-Jun-18 00:00N 37°18' W 009°42'1636.9 350 / 171018.6 5.4 1.019.015.620.5
2015-Jun-17 23:33N 37°34' W 009°47'2019.6
2015-Jun-17 22:33N 37°53' W 009°53'2019.6
2015-Jun-17 21:33N 38°12' W 009°58'2019.6
2015-Jun-17 20:34N 38°31' W 010°04'1919.3
2015-Jun-17 19:33N 38°50' W 010°05'2019.9
2015-Jun-17 18:33N 39°10' W 010°04'2019.6
2015-Jun-17 17:33N 39°30' W 010°05'2019.4
2015-Jun-17 16:33N 39°49' W 010°05'1919.3
2015-Jun-17 15:33N 40°08' W 010°06'1919.5
2015-Jun-17 14:33N 40°28' W 010°08'1919.4
2015-Jun-17 13:34N 40°47' W 010°06'2019.5
2015-Jun-17 12:33N 41°07' W 010°05'61118.3
2015-Jun-16 03:10N 49°58' W 002°54'5721.8
2015-Jun-16 00:32N 50°14' W 001°29'2321.6
2015-Jun-15 23:30N 50°19' W 000°54'1919.7
2015-Jun-15 22:33N 50°25' W 000°26'1918.7
2015-Jun-15 21:33N 50°29' E 000°02'1817.6
2015-Jun-15 20:33N 50°34' E 000°29'1817.8
2015-Jun-15 19:34N 50°44' E 000°52'2020.0
2015-Jun-15 18:34N 50°55' E 001°19'2221.6
2015-Jun-15 17:33N 51°11' E 001°42'2020.4
2015-Jun-15 16:34N 51°27' E 002°01'1918.9
2015-Jun-15 15:32N 51°43' E 002°19'1717.8
2015-Jun-15 14:33N 51°55' E 002°39'2017.1
2015-Jun-15 13:24N 52°03' E 003°09'1718.0
2015-Jun-15 12:28N 52°04' E 003°36'1314.4
2015-Jun-15 11:33N 52°02' E 003°57'6 5.6
2015-Jun-15 10:33N 51°58' E 004°04'2 2.2
2015-Jun-15 09:33N 51°57' E 004°00'0 0.0
2015-Jun-15 08:30N 51°57' E 004°00'0 0.0
2015-Jun-15 07:33N 51°57' E 004°00'0 0.0
2015-Jun-15 06:33N 51°57' E 004°00'0 0.0
2015-Jun-15 05:30N 51°57' E 004°00'0 0.0
2015-Jun-15 04:33N 51°57' E 004°00'0 0.0
2015-Jun-15 03:33N 51°57' E 004°00'0 0.0
2015-Jun-15 02:33N 51°57' E 004°00'0 0.0
2015-Jun-15 01:33N 51°57' E 004°00'0 0.0
2015-Jun-15 00:33N 51°57' E 004°00'0 0.0
2015-Jun-14 23:33N 51°57' E 004°00'0 0.0
2015-Jun-14 22:32N 51°57' E 004°00'0 0.0
2015-Jun-14 21:32N 51°57' E 004°00'0 0.0
2015-Jun-14 20:32N 51°57' E 004°00'0 0.0
2015-Jun-14 19:32N 51°57' E 004°00'0 0.0
2015-Jun-14 18:32N 51°57' E 004°00'0 0.0
2015-Jun-14 17:32N 51°57' E 004°00'0 0.0
2015-Jun-14 16:32N 51°57' E 004°00'0 0.0
2015-Jun-14 15:32N 51°57' E 004°00'0 0.0
2015-Jun-14 14:32N 51°57' E 004°00'0 0.0
2015-Jun-14 13:32N 51°57' E 004°00'0 0.0
2015-Jun-14 12:32N 51°57' E 004°00'0 0.0
2015-Jun-14 11:32N 51°57' E 004°00'0 0.0
2015-Jun-14 10:32N 51°57' E 004°00'0 0.0
2015-Jun-14 09:29N 51°57' E 004°00'0 0.0
2015-Jun-14 08:32N 51°57' E 004°00'0 0.0
2015-Jun-14 07:32N 51°57' E 004°00'0 0.0
2015-Jun-14 06:32N 51°57' E 004°00'0 0.0
2015-Jun-14 05:32N 51°57' E 004°00'0 0.0
2015-Jun-14 04:32N 51°57' E 004°00'0 0.0
2015-Jun-14 03:28N 51°57' E 004°00'0 0.0
2015-Jun-14 02:31N 51°57' E 004°00'0 0.0
2015-Jun-14 01:31N 51°57' E 004°00'0 0.0
2015-Jun-14 00:31N 51°57' E 004°00'0 0.0
2015-Jun-13 23:31N 51°57' E 004°00'0 0.0
2015-Jun-13 22:31N 51°57' E 004°00'0 0.0
2015-Jun-13 21:31N 51°57' E 004°00'0 0.0
2015-Jun-13 20:31N 51°57' E 004°00'0 0.0
2015-Jun-13 19:31N 51°57' E 004°00'0 0.0
2015-Jun-13 18:31N 51°57' E 004°00'0 0.0
2015-Jun-13 17:31N 51°57' E 004°00'0 0.0
2015-Jun-13 16:31N 51°57' E 004°00'0 0.0
2015-Jun-13 15:31N 51°57' E 004°00'0 0.0
2015-Jun-13 14:31N 51°57' E 004°00'0 0.0
2015-Jun-13 13:31N 51°57' E 004°00'0 0.0
2015-Jun-13 12:31N 51°57' E 004°00'0 0.0
2015-Jun-13 11:31N 51°57' E 004°00'0 0.0
2015-Jun-13 10:31N 51°57' E 004°00'0 0.0
2015-Jun-13 09:31N 51°57' E 004°00'0 0.0
2015-Jun-13 08:31N 51°57' E 004°00'0 0.0
2015-Jun-13 07:34N 51°57' E 004°00'0 0.0
2015-Jun-13 06:33N 51°57' E 004°00'0 0.0
2015-Jun-13 05:33N 51°57' E 004°00'0 0.0
2015-Jun-13 04:33N 51°57' E 004°00'0 0.0
2015-Jun-13 03:33N 51°57' E 004°00'0 0.0
2015-Jun-13 02:33N 51°57' E 004°00'0 0.0
2015-Jun-13 01:33N 51°57' E 004°00'0 0.0
2015-Jun-13 00:33N 51°57' E 004°00'0 0.0
2015-Jun-12 23:33N 51°57' E 004°00'0 0.0
2015-Jun-12 22:33N 51°57' E 004°00'0 0.0
2015-Jun-12 21:33N 51°57' E 004°00'0 0.0
2015-Jun-12 20:33N 51°57' E 004°00'3 2.6
2015-Jun-12 19:33N 51°58' E 004°04'9 8.7
2015-Jun-12 18:34N 52°00' E 003°51'1010.5
2015-Jun-12 17:33N 52°10' E 003°46'1312.7
2015-Jun-12 16:34N 52°23' E 003°49'1312.6
2015-Jun-12 15:32N 52°35' E 003°53'4310.8
2015-Jun-12 11:32N 53°14' E 004°26'1111.0
2015-Jun-12 10:34N 53°24' E 004°34'1211.6
2015-Jun-12 09:33N 53°31' E 004°49'  
Track history (hours):
 
Tides and Currents Weather Stations Pressure Air Temp Water Temp Dewpoint Dewpoint Depression Visibility Wind Speed Wind Dir Waves Ship Positions

Maersk_kyrenia

Last reported at 2015-Jun-22 09:00 UTC. Time now 2015-Jun-29 23:12 UTC.
Position N 32°18' E 029°54'.

Length 300 m; draft 14 m.

MMSI: 477733600.

Wind from 280 at 12 knots

Waves 1.0 meters (3 feet), 4 second period

Barometer 1013.3 mb
Air temperature 26.5 ° C
Visibility: greater than 10.8 NM
Dewpoint 17.9 ° C
Water temperature 24.5 ° C

Date/timePositionNaut miles runAvg speedWind from/ knotsBaromVisibWave heightAir tempDewpointWater temp
2015-Jun-22 09:00N 32°18' E 029°54'78519.4 280 / 121013.310.8 1.026.517.924.5
2015-Jun-20 16:28N 36°17' E 014°49'1819.6
2015-Jun-20 15:33N 36°22' E 014°27'1919.4
2015-Jun-20 14:33N 36°28' E 014°04'2019.4
2015-Jun-20 13:32N 36°34' E 013°41'46319.2
2015-Jun-19 13:28N 37°15' E 004°05'1428.3
2015-Jun-19 13:00N 37°12' E 003°48'512.3 080 / 101017.1 5.4 0.524.517.323.2
2015-Jun-19 12:33N 37°15' E 003°42'4619.5
2015-Jun-19 10:13N 37°13' E 002°45'1319.4
2015-Jun-19 09:32N 37°10' E 002°29'2319.3
2015-Jun-19 08:21N 37°03' E 002°02'1619.2
2015-Jun-19 07:32N 37°02' E 001°42'1919.2
2015-Jun-19 06:33N 36°59' E 001°19'1919.2
2015-Jun-19 05:33N 36°55' E 000°55'1919.2
2015-Jun-19 04:33N 36°51' E 000°32'1919.3
2015-Jun-19 03:33N 36°47' E 000°08'1919.2
2015-Jun-19 02:33N 36°42' W 000°15'1919.0
2015-Jun-19 01:33N 36°38' W 000°39'3 6.2
2015-Jun-19 01:00N 36°36' W 000°42'1831.7 030 / 141017.6 5.4 0.521.017.823.0
2015-Jun-19 00:25N 36°34' W 001°04'5519.1
2015-Jun-18 21:33N 36°22' W 002°11'1919.3
2015-Jun-18 20:34N 36°18' W 002°34'12819.9
2015-Jun-18 14:08N 35°60' W 005°11'1120.2
2015-Jun-18 13:34N 35°58' W 005°25'13317.9
2015-Jun-18 06:07N 36°18' W 008°08'1119.1
2015-Jun-18 05:33N 36°21' W 008°21'1919.2
2015-Jun-18 04:34N 36°26' W 008°44'1918.9
2015-Jun-18 03:33N 36°29' W 009°07'1918.4
2015-Jun-18 02:33N 36°40' W 009°26'1818.5
2015-Jun-18 01:33N 36°56' W 009°36'1919.1
2015-Jun-18 00:33N 37°15' W 009°42'3 5.9
2015-Jun-18 00:00N 37°18' W 009°42'1636.9 350 / 171018.6 5.4 1.019.015.620.5
2015-Jun-17 23:33N 37°34' W 009°47'2019.6
2015-Jun-17 22:33N 37°53' W 009°53'2019.6
2015-Jun-17 21:33N 38°12' W 009°58'2019.6
2015-Jun-17 20:34N 38°31' W 010°04'1919.3
2015-Jun-17 19:33N 38°50' W 010°05'2019.9
2015-Jun-17 18:33N 39°10' W 010°04'2019.6
2015-Jun-17 17:33N 39°30' W 010°05'2019.4
2015-Jun-17 16:33N 39°49' W 010°05'1919.3
2015-Jun-17 15:33N 40°08' W 010°06'1919.5
2015-Jun-17 14:33N 40°28' W 010°08'1919.4
2015-Jun-17 13:34N 40°47' W 010°06'2019.5
2015-Jun-17 12:33N 41°07' W 010°05'61118.3
2015-Jun-16 03:10N 49°58' W 002°54'5721.8
2015-Jun-16 00:32N 50°14' W 001°29'2321.6
2015-Jun-15 23:30N 50°19' W 000°54'1919.7
2015-Jun-15 22:33N 50°25' W 000°26'1918.7
2015-Jun-15 21:33N 50°29' E 000°02'1817.6
2015-Jun-15 20:33N 50°34' E 000°29'1817.8
2015-Jun-15 19:34N 50°44' E 000°52'2020.0
2015-Jun-15 18:34N 50°55' E 001°19'2221.6
2015-Jun-15 17:33N 51°11' E 001°42'2020.4
2015-Jun-15 16:34N 51°27' E 002°01'1918.9
2015-Jun-15 15:32N 51°43' E 002°19'1717.8
2015-Jun-15 14:33N 51°55' E 002°39'2017.1
2015-Jun-15 13:24N 52°03' E 003°09'1718.0
2015-Jun-15 12:28N 52°04' E 003°36'1314.4
2015-Jun-15 11:33N 52°02' E 003°57'6 5.6
2015-Jun-15 10:33N 51°58' E 004°04'2 2.2
2015-Jun-15 09:33N 51°57' E 004°00'0 0.0
2015-Jun-15 08:30N 51°57' E 004°00'0 0.0
2015-Jun-15 07:33N 51°57' E 004°00'0 0.0
2015-Jun-15 06:33N 51°57' E 004°00'0 0.0
2015-Jun-15 05:30N 51°57' E 004°00'0 0.0
2015-Jun-15 04:33N 51°57' E 004°00'0 0.0
2015-Jun-15 03:33N 51°57' E 004°00'0 0.0
2015-Jun-15 02:33N 51°57' E 004°00'0 0.0
2015-Jun-15 01:33N 51°57' E 004°00'0 0.0
2015-Jun-15 00:33N 51°57' E 004°00'0 0.0
2015-Jun-14 23:33N 51°57' E 004°00'0 0.0
2015-Jun-14 22:32N 51°57' E 004°00'0 0.0
2015-Jun-14 21:32N 51°57' E 004°00'0 0.0
2015-Jun-14 20:32N 51°57' E 004°00'0 0.0
2015-Jun-14 19:32N 51°57' E 004°00'0 0.0
2015-Jun-14 18:32N 51°57' E 004°00'0 0.0
2015-Jun-14 17:32N 51°57' E 004°00'0 0.0
2015-Jun-14 16:32N 51°57' E 004°00'0 0.0
2015-Jun-14 15:32N 51°57' E 004°00'0 0.0
2015-Jun-14 14:32N 51°57' E 004°00'0 0.0
2015-Jun-14 13:32N 51°57' E 004°00'0 0.0
2015-Jun-14 12:32N 51°57' E 004°00'0 0.0
2015-Jun-14 11:32N 51°57' E 004°00'0 0.0
2015-Jun-14 10:32N 51°57' E 004°00'0 0.0
2015-Jun-14 09:29N 51°57' E 004°00'0 0.0
2015-Jun-14 08:32N 51°57' E 004°00'0 0.0
2015-Jun-14 07:32N 51°57' E 004°00'0 0.0
2015-Jun-14 06:32N 51°57' E 004°00'0 0.0
2015-Jun-14 05:32N 51°57' E 004°00'0 0.0
2015-Jun-14 04:32N 51°57' E 004°00'0 0.0
2015-Jun-14 03:28N 51°57' E 004°00'0 0.0
2015-Jun-14 02:31N 51°57' E 004°00'0 0.0
2015-Jun-14 01:31N 51°57' E 004°00'0 0.0
2015-Jun-14 00:31N 51°57' E 004°00'0 0.0
2015-Jun-13 23:31N 51°57' E 004°00'0 0.0
2015-Jun-13 22:31N 51°57' E 004°00'0 0.0
2015-Jun-13 21:31N 51°57' E 004°00'0 0.0
2015-Jun-13 20:31N 51°57' E 004°00'0 0.0
2015-Jun-13 19:31N 51°57' E 004°00'0 0.0
2015-Jun-13 18:31N 51°57' E 004°00'0 0.0
2015-Jun-13 17:31N 51°57' E 004°00'0 0.0
2015-Jun-13 16:31N 51°57' E 004°00'0 0.0
2015-Jun-13 15:31N 51°57' E 004°00'0 0.0
2015-Jun-13 14:31N 51°57' E 004°00'0 0.0
2015-Jun-13 13:31N 51°57' E 004°00'0 0.0
2015-Jun-13 12:31N 51°57' E 004°00'0 0.0
2015-Jun-13 11:31N 51°57' E 004°00'0 0.0
2015-Jun-13 10:31N 51°57' E 004°00'0 0.0
2015-Jun-13 09:31N 51°57' E 004°00'0 0.0
2015-Jun-13 08:31N 51°57' E 004°00'0 0.0
2015-Jun-13 07:34N 51°57' E 004°00'0 0.0
2015-Jun-13 06:33N 51°57' E 004°00'0 0.0
2015-Jun-13 05:33N 51°57' E 004°00'0 0.0
2015-Jun-13 04:33N 51°57' E 004°00'0 0.0
2015-Jun-13 03:33N 51°57' E 004°00'0 0.0
2015-Jun-13 02:33N 51°57' E 004°00'0 0.0
2015-Jun-13 01:33N 51°57' E 004°00'0 0.0
2015-Jun-13 00:33N 51°57' E 004°00'0 0.0
2015-Jun-12 23:33N 51°57' E 004°00'0 0.0
2015-Jun-12 22:33N 51°57' E 004°00'0 0.0
2015-Jun-12 21:33N 51°57' E 004°00'0 0.0
2015-Jun-12 20:33N 51°57' E 004°00'3 2.6
2015-Jun-12 19:33N 51°58' E 004°04'9 8.7
2015-Jun-12 18:34N 52°00' E 003°51'1010.5
2015-Jun-12 17:33N 52°10' E 003°46'1312.7
2015-Jun-12 16:34N 52°23' E 003°49'1312.6
2015-Jun-12 15:32N 52°35' E 003°53'4310.8
2015-Jun-12 11:32N 53°14' E 004°26'1111.0
2015-Jun-12 10:34N 53°24' E 004°34'1211.6
2015-Jun-12 09:33N 53°31' E 004°49'  

Dump ship's entire track history